createdAt,value
2018-09-29T00:00:05.542Z,4.87
2018-09-29T00:02:34.338Z,4.23
2018-09-29T00:05:03.159Z,4.60
2018-09-29T00:07:32.051Z,4.27
2018-09-29T00:10:00.860Z,4.13
2018-09-29T00:12:29.693Z,4.10
2018-09-29T00:14:58.625Z,4.10
2018-09-29T00:17:27.410Z,3.27
2018-09-29T00:19:56.250Z,3.47
2018-09-29T00:22:25.053Z,3.67
2018-09-29T00:24:53.861Z,2.90
2018-09-29T00:27:22.682Z,3.17
2018-09-29T00:29:51.485Z,3.00
2018-09-29T00:32:20.278Z,3.30
2018-09-29T00:34:49.195Z,3.33
2018-09-29T00:37:18.018Z,8.30
2018-09-29T00:39:46.810Z,7.17
2018-09-29T00:42:15.597Z,11.50
2018-09-29T00:44:44.531Z,14.43
2018-09-29T00:47:13.350Z,12.40
2018-09-29T00:49:42.165Z,13.83
2018-09-29T00:52:11.134Z,14.23
2018-09-29T00:54:39.949Z,16.17
2018-09-29T00:57:08.870Z,17.20
2018-09-29T00:59:37.681Z,15.07
2018-09-29T01:02:06.554Z,14.57
2018-09-29T01:04:35.410Z,15.30
2018-09-29T01:07:04.213Z,12.10
2018-09-29T01:09:33.013Z,10.50
2018-09-29T01:12:01.841Z,5.47
2018-09-29T01:14:30.657Z,4.67
2018-09-29T01:16:59.513Z,3.90
2018-09-29T01:19:28.321Z,3.40
2018-09-29T01:21:57.110Z,3.30
2018-09-29T01:24:25.941Z,3.10
2018-09-29T01:26:54.737Z,3.13
2018-09-29T01:29:23.563Z,3.43
2018-09-29T01:31:52.518Z,12.27
2018-09-29T01:34:21.353Z,20.03
2018-09-29T01:36:50.196Z,7.40
2018-09-29T01:39:18.983Z,4.80
2018-09-29T01:41:47.761Z,3.20
2018-09-29T01:44:16.577Z,2.53
2018-09-29T01:46:45.357Z,2.87
2018-09-29T01:49:14.181Z,3.00
2018-09-29T01:51:42.962Z,2.57
2018-09-29T01:54:11.801Z,2.73
2018-09-29T01:56:40.599Z,2.57
2018-09-29T01:59:09.389Z,2.63
2018-09-29T02:01:39.614Z,2.63
2018-09-29T02:04:08.430Z,2.53
2018-09-29T02:06:37.270Z,2.13
2018-09-29T02:09:07.119Z,2.13
2018-09-29T02:11:35.927Z,2.00
2018-09-29T02:14:05.031Z,2.37
2018-09-29T02:16:34.069Z,2.20
2018-09-29T02:19:02.877Z,2.67
2018-09-29T02:21:31.673Z,2.80
2018-09-29T02:24:00.506Z,3.20
2018-09-29T02:26:29.294Z,6.20
2018-09-29T02:28:58.145Z,6.50
2018-09-29T02:31:26.946Z,6.80
2018-09-29T02:33:55.734Z,10.23
2018-09-29T02:36:24.553Z,12.87
2018-09-29T02:38:53.421Z,10.03
2018-09-29T02:41:22.229Z,8.07
2018-09-29T02:43:51.048Z,5.03
2018-09-29T02:46:19.928Z,3.30
2018-09-29T02:48:48.713Z,3.00
2018-09-29T02:51:17.654Z,3.30
2018-09-29T02:53:46.440Z,3.23
2018-09-29T02:56:15.966Z,4.00
2018-09-29T02:58:44.814Z,8.80
2018-09-29T03:01:13.667Z,8.43
2018-09-29T03:03:42.486Z,8.00
2018-09-29T03:06:11.378Z,12.70
2018-09-29T03:08:40.202Z,11.63
2018-09-29T03:11:09.011Z,10.80
2018-09-29T03:13:37.854Z,10.63
2018-09-29T03:16:06.706Z,11.30
2018-09-29T03:18:35.585Z,8.03
2018-09-29T03:21:04.645Z,6.03
2018-09-29T03:23:33.446Z,3.93
2018-09-29T03:26:02.317Z,3.73
2018-09-29T03:28:31.122Z,3.80
2018-09-29T03:30:59.922Z,3.30
2018-09-29T03:33:28.777Z,3.93
2018-09-29T03:35:57.884Z,3.53
2018-09-29T03:38:26.673Z,3.67
2018-09-29T03:40:55.514Z,3.50
2018-09-29T03:43:24.294Z,3.83
2018-09-29T03:45:53.083Z,3.73
2018-09-29T03:48:21.945Z,3.93
2018-09-29T03:50:50.730Z,4.40
2018-09-29T03:53:24.969Z,4.80
2018-09-29T03:55:53.788Z,4.00
2018-09-29T03:58:22.573Z,4.23
2018-09-29T04:00:51.446Z,5.07
2018-09-29T04:03:20.239Z,6.13
2018-09-29T04:05:49.049Z,8.53
2018-09-29T04:08:17.898Z,7.20
2018-09-29T04:10:46.700Z,7.00
2018-09-29T04:13:15.498Z,8.73
2018-09-29T04:15:44.390Z,5.03
2018-09-29T04:18:13.263Z,3.80
2018-09-29T04:20:42.055Z,3.37
2018-09-29T04:23:10.831Z,4.40
2018-09-29T04:25:39.674Z,3.40
2018-09-29T04:28:08.506Z,4.37
2018-09-29T04:30:37.304Z,3.50
2018-09-29T04:33:06.153Z,3.83
2018-09-29T04:35:36.314Z,2.97
2018-09-29T04:38:05.142Z,3.27
2018-09-29T04:40:33.937Z,3.30
2018-09-29T04:43:02.900Z,3.00
2018-09-29T04:45:31.728Z,2.97
2018-09-29T04:48:00.546Z,2.93
2018-09-29T04:50:29.418Z,2.50
2018-09-29T04:52:58.231Z,3.27
2018-09-29T04:55:27.069Z,3.03
2018-09-29T04:57:56.021Z,2.57
2018-09-29T05:00:24.835Z,3.77
2018-09-29T05:02:53.648Z,3.57
2018-09-29T05:05:22.487Z,3.73
2018-09-29T05:07:51.298Z,3.70
2018-09-29T05:10:20.098Z,3.70
2018-09-29T05:12:48.996Z,3.63
2018-09-29T05:15:17.950Z,3.70
2018-09-29T05:17:46.791Z,3.60
2018-09-29T05:20:15.606Z,3.27
2018-09-29T05:22:44.443Z,3.90
2018-09-29T05:25:13.253Z,3.47
2018-09-29T05:27:42.065Z,4.20
2018-09-29T05:30:11.885Z,3.10
2018-09-29T05:32:40.722Z,3.47
2018-09-29T05:35:09.562Z,3.70
2018-09-29T05:37:38.445Z,3.23
2018-09-29T05:40:07.253Z,3.47
2018-09-29T05:42:36.064Z,3.85
2018-09-29T05:45:05.035Z,2.77
2018-09-29T05:47:33.866Z,2.97
2018-09-29T05:50:02.694Z,3.20
2018-09-29T05:52:31.560Z,3.00
2018-09-29T05:55:00.381Z,3.00
2018-09-29T05:57:29.340Z,2.90
2018-09-29T05:59:58.213Z,2.90
2018-09-29T06:02:27.075Z,4.00
2018-09-29T06:04:55.917Z,4.77
2018-09-29T06:07:24.874Z,5.47
2018-09-29T06:09:53.682Z,6.10
2018-09-29T06:12:22.499Z,6.97
2018-09-29T06:14:51.448Z,6.57
2018-09-29T06:17:20.315Z,6.20
2018-09-29T06:19:49.130Z,7.37
2018-09-29T06:22:18.231Z,6.70
2018-09-29T06:24:47.102Z,6.43
2018-09-29T06:27:15.949Z,6.77
2018-09-29T06:29:44.784Z,5.57
2018-09-29T06:32:14.500Z,5.03
2018-09-29T06:34:47.860Z,5.83
2018-09-29T06:37:19.438Z,5.83
2018-09-29T06:39:48.318Z,7.53
2018-09-29T06:42:17.234Z,8.80
2018-09-29T06:44:46.162Z,9.50
2018-09-29T06:47:15.039Z,11.37
2018-09-29T06:49:43.898Z,12.37
2018-09-29T06:52:14.030Z,16.07
2018-09-29T06:54:42.876Z,16.10
2018-09-29T06:57:11.691Z,16.30
2018-09-29T06:59:41.988Z,13.13
2018-09-29T07:02:10.823Z,11.90
2018-09-29T07:04:39.840Z,11.07
2018-09-29T07:07:10.265Z,10.10
2018-09-29T07:09:39.181Z,13.40
2018-09-29T07:12:08.112Z,14.70
2018-09-29T07:14:37.034Z,14.80
2018-09-29T07:17:06.818Z,14.77
2018-09-29T07:19:36.429Z,12.87
2018-09-29T07:22:06.773Z,12.27
2018-09-29T07:24:35.685Z,14.97
2018-09-29T07:27:04.585Z,9.30
2018-09-29T07:29:33.570Z,11.37
2018-09-29T07:32:02.457Z,11.73
2018-09-29T07:34:31.379Z,32.43
2018-09-29T07:37:01.729Z,23.47
2018-09-29T07:39:30.624Z,29.07
2018-09-29T07:41:59.576Z,16.40
2018-09-29T07:44:29.745Z,10.73
2018-09-29T07:46:58.645Z,17.93
2018-09-29T07:49:27.528Z,18.87
2018-09-29T07:51:57.672Z,25.70
2018-09-29T07:54:26.556Z,29.30
2018-09-29T07:56:55.452Z,29.77
2018-09-29T07:59:24.672Z,28.43
2018-09-29T08:01:53.567Z,15.90
2018-09-29T08:04:22.509Z,9.27
2018-09-29T08:06:51.556Z,10.43
2018-09-29T08:09:20.446Z,11.57
2018-09-29T08:11:49.395Z,13.03
2018-09-29T08:14:18.285Z,11.23
2018-09-29T08:16:47.242Z,6.87
2018-09-29T08:19:16.198Z,7.70
2018-09-29T08:21:45.326Z,7.90
2018-09-29T08:24:15.567Z,9.47
2018-09-29T08:26:44.416Z,7.80
2018-09-29T08:29:13.227Z,9.67
2018-09-29T08:31:42.069Z,8.90
2018-09-29T08:34:10.915Z,11.30
2018-09-29T08:36:39.818Z,10.10
2018-09-29T08:39:10.978Z,13.83
2018-09-29T08:41:39.915Z,11.37
2018-09-29T08:44:08.739Z,13.77
2018-09-29T08:46:37.641Z,7.57
2018-09-29T08:49:06.476Z,6.30
2018-09-29T08:51:35.315Z,8.37
2018-09-29T08:54:05.559Z,11.00
2018-09-29T08:56:34.452Z,16.33
2018-09-29T08:59:03.643Z,16.17
2018-09-29T09:01:32.523Z,10.97
2018-09-29T09:04:01.635Z,9.10
2018-09-29T09:06:30.459Z,8.07
2018-09-29T09:08:59.314Z,8.17
2018-09-29T09:11:28.220Z,8.40
2018-09-29T09:13:57.227Z,7.37
2018-09-29T09:16:27.232Z,7.97
2018-09-29T09:18:56.099Z,8.53
2018-09-29T09:21:24.919Z,10.03
2018-09-29T09:23:53.770Z,10.10
2018-09-29T09:26:22.666Z,10.03
2018-09-29T09:28:51.762Z,10.97
2018-09-29T09:31:21.851Z,12.20
2018-09-29T09:33:50.849Z,12.53
2018-09-29T09:36:19.823Z,11.80
2018-09-29T09:38:48.660Z,10.30
2018-09-29T09:41:17.524Z,10.63
2018-09-29T09:43:46.331Z,9.60
2018-09-29T09:46:15.206Z,9.87
2018-09-29T09:48:44.043Z,8.57
2018-09-29T09:51:13.059Z,8.13
2018-09-29T09:53:41.989Z,6.30
2018-09-29T09:56:10.940Z,7.40
2018-09-29T09:58:39.861Z,7.50
2018-09-29T10:01:14.035Z,7.17
2018-09-29T10:03:42.930Z,6.17
2018-09-29T10:06:11.803Z,6.23
2018-09-29T10:08:40.610Z,7.03
2018-09-29T10:11:09.563Z,6.13
2018-09-29T10:13:38.420Z,5.70
2018-09-29T10:16:07.681Z,6.10
2018-09-29T10:18:36.564Z,5.30
2018-09-29T10:21:05.415Z,4.90
2018-09-29T10:23:34.395Z,5.23
2018-09-29T10:26:04.442Z,4.63
2018-09-29T10:28:33.253Z,4.67
2018-09-29T10:31:02.078Z,10.97
2018-09-29T10:33:30.976Z,9.30
2018-09-29T10:38:33.769Z,18.10
2018-09-29T10:41:02.579Z,5.60
2018-09-29T10:43:31.386Z,8.03
2018-09-29T10:46:00.222Z,7.63
2018-09-29T10:48:29.060Z,8.47
2018-09-29T10:50:57.865Z,9.40
2018-09-29T10:53:28.190Z,8.50
2018-09-29T10:55:56.998Z,12.70
2018-09-29T10:58:25.865Z,13.40
2018-09-29T11:00:54.731Z,15.00
2018-09-29T11:03:23.551Z,14.60
2018-09-29T11:05:52.404Z,14.73
2018-09-29T11:08:21.311Z,14.77
2018-09-29T11:10:51.394Z,17.07
2018-09-29T11:13:20.218Z,17.60
2018-09-29T11:15:50.474Z,18.87
2018-09-29T11:18:20.568Z,19.27
2018-09-29T11:20:49.430Z,19.20
2018-09-29T11:23:18.266Z,19.90
2018-09-29T11:25:48.363Z,20.00
2018-09-29T11:28:17.218Z,19.27
2018-09-29T11:30:47.541Z,18.67
2018-09-29T11:33:16.362Z,19.57
2018-09-29T11:35:45.300Z,20.43
2018-09-29T11:38:14.138Z,21.97
2018-09-29T11:40:43.161Z,22.20
2018-09-29T11:43:12.159Z,20.57
2018-09-29T11:45:41.084Z,20.33
2018-09-29T11:48:09.911Z,22.47
2018-09-29T11:50:40.142Z,21.23
2018-09-29T11:53:09.006Z,21.30
2018-09-29T11:55:38.462Z,20.00
2018-09-29T11:58:07.302Z,24.00
2018-09-29T12:00:36.184Z,24.30
2018-09-29T12:03:05.048Z,25.30
2018-09-29T12:05:33.891Z,22.03
2018-09-29T12:08:02.770Z,21.20
2018-09-29T12:10:32.882Z,20.27
2018-09-29T12:13:04.238Z,23.30
2018-09-29T12:15:33.067Z,23.50
2018-09-29T12:18:03.428Z,21.87
2018-09-29T12:20:32.271Z,21.90
2018-09-29T12:23:01.110Z,27.10
2018-09-29T12:25:31.278Z,28.43
2018-09-29T12:28:00.100Z,30.77
2018-09-29T12:30:28.953Z,31.97
2018-09-29T12:32:59.099Z,31.40
2018-09-29T12:35:27.922Z,33.47
2018-09-29T12:37:58.091Z,35.53
2018-09-29T12:40:26.973Z,35.40
2018-09-29T12:42:57.226Z,36.17
2018-09-29T12:45:27.345Z,37.20
2018-09-29T12:47:56.186Z,36.33
2018-09-29T12:50:25.344Z,35.43
2018-09-29T12:52:54.442Z,31.80
2018-09-29T12:55:23.280Z,28.13
2018-09-29T12:57:53.387Z,36.73
2018-09-29T13:00:22.451Z,34.23
2018-09-29T13:02:51.311Z,27.80
2018-09-29T13:05:20.264Z,26.13
2018-09-29T13:07:49.063Z,25.63
2018-09-29T13:10:17.909Z,28.40
2018-09-29T13:12:46.755Z,30.87
2018-09-29T13:15:15.619Z,34.90
2018-09-29T13:17:44.494Z,43.67
2018-09-29T13:20:13.344Z,45.13
2018-09-29T13:22:42.180Z,48.77
2018-09-29T13:25:11.065Z,48.07
2018-09-29T13:27:40.080Z,51.03
2018-09-29T13:30:08.992Z,50.37
2018-09-29T13:32:38.033Z,50.67
2018-09-29T13:35:07.187Z,50.37
2018-09-29T13:37:36.015Z,41.63
2018-09-29T13:40:04.925Z,32.77
2018-09-29T13:42:33.806Z,37.03
2018-09-29T13:45:02.664Z,37.73
2018-09-29T13:47:31.511Z,42.10
2018-09-29T13:50:00.435Z,37.17
2018-09-29T13:52:29.318Z,37.77
2018-09-29T13:54:58.173Z,34.67
2018-09-29T13:57:27.048Z,28.40
2018-09-29T13:59:56.042Z,23.70
2018-09-29T14:02:25.086Z,21.53
2018-09-29T14:04:53.963Z,24.37
2018-09-29T14:07:22.787Z,22.17
2018-09-29T14:09:51.630Z,10.30
2018-09-29T14:12:20.558Z,11.23
2018-09-29T14:14:49.390Z,14.47
2018-09-29T14:17:18.260Z,13.63
2018-09-29T14:19:47.226Z,13.53
2018-09-29T14:22:16.095Z,13.60
2018-09-29T14:24:45.047Z,14.17
2018-09-29T14:27:13.875Z,10.97
2018-09-29T14:29:42.678Z,14.23
2018-09-29T14:32:11.536Z,13.57
2018-09-29T14:34:40.415Z,13.13
2018-09-29T14:37:10.582Z,9.80
2018-09-29T14:39:39.419Z,9.63
2018-09-29T14:42:08.294Z,10.97
2018-09-29T14:44:37.123Z,8.73
2018-09-29T14:47:06.112Z,9.50
2018-09-29T14:49:35.183Z,10.53
2018-09-29T14:52:04.127Z,8.90
2018-09-29T14:54:33.002Z,10.47
2018-09-29T14:57:02.093Z,9.40
2018-09-29T14:59:30.987Z,9.77
2018-09-29T15:02:02.481Z,10.27
2018-09-29T15:04:31.331Z,9.83
2018-09-29T15:07:00.175Z,11.23
2018-09-29T15:09:29.076Z,11.50
2018-09-29T15:11:57.922Z,10.23
2018-09-29T15:14:26.819Z,10.83
2018-09-29T15:16:57.062Z,12.60
2018-09-29T15:19:25.964Z,10.93
2018-09-29T15:21:54.911Z,11.40
2018-09-29T15:24:23.754Z,13.33
2018-09-29T15:26:52.580Z,12.93
2018-09-29T15:29:21.462Z,15.57
2018-09-29T15:31:50.348Z,13.40
2018-09-29T15:34:19.197Z,13.60
2018-09-29T15:36:48.079Z,11.07
2018-09-29T15:39:16.956Z,14.40
2018-09-29T15:41:45.796Z,13.67
2018-09-29T15:44:14.745Z,12.73
2018-09-29T15:46:43.661Z,14.27
2018-09-29T15:49:12.497Z,11.17
2018-09-29T15:51:41.385Z,8.93
2018-09-29T15:54:11.278Z,11.17
2018-09-29T15:56:40.267Z,11.30
2018-09-29T15:59:09.155Z,11.47
2018-09-29T16:01:38.069Z,12.03
2018-09-29T16:04:09.924Z,10.30
2018-09-29T16:06:38.839Z,11.97
2018-09-29T16:09:10.992Z,12.73
2018-09-29T16:11:40.663Z,12.78
2018-09-29T16:14:09.577Z,13.07
2018-09-29T16:16:38.483Z,11.60
2018-09-29T16:19:07.385Z,10.80
2018-09-29T16:21:36.283Z,11.17
2018-09-29T16:24:05.207Z,13.27
2018-09-29T16:26:34.431Z,13.43
2018-09-29T16:29:03.424Z,11.93
2018-09-29T16:31:32.291Z,10.60
2018-09-29T16:34:02.599Z,12.67
2018-09-29T16:36:31.487Z,13.33
2018-09-29T16:39:00.318Z,13.27
2018-09-29T16:41:30.606Z,11.70
2018-09-29T16:43:59.492Z,14.57
2018-09-29T16:46:28.361Z,15.77
2018-09-29T16:48:57.243Z,15.47
2018-09-29T16:51:26.075Z,13.90
2018-09-29T16:53:54.972Z,14.50
2018-09-29T16:56:23.913Z,16.20
2018-09-29T16:58:52.833Z,14.83
2018-09-29T17:01:21.707Z,15.13
2018-09-29T17:03:50.741Z,13.03
2018-09-29T17:06:19.757Z,14.27
2018-09-29T17:08:48.869Z,13.67
2018-09-29T17:11:17.762Z,14.43
2018-09-29T17:13:46.667Z,15.57
2018-09-29T17:16:15.695Z,14.93
2018-09-29T17:18:44.671Z,16.60
2018-09-29T17:21:13.556Z,11.53
2018-09-29T17:23:42.529Z,15.03
2018-09-29T17:26:11.419Z,14.67
2018-09-29T17:28:40.395Z,12.73
2018-09-29T17:31:09.291Z,11.87
2018-09-29T17:33:38.673Z,13.93
2018-09-29T17:36:08.278Z,15.90
2018-09-29T17:38:37.284Z,15.60
2018-09-29T17:41:06.510Z,15.10
2018-09-29T17:43:35.359Z,15.50
2018-09-29T17:46:04.290Z,16.67
2018-09-29T17:48:33.212Z,17.77
2018-09-29T17:51:02.080Z,18.50
2018-09-29T17:53:31.046Z,19.73
2018-09-29T17:55:59.983Z,21.40
2018-09-29T17:58:29.446Z,24.27
2018-09-29T18:00:58.500Z,24.73
2018-09-29T18:03:27.482Z,24.90
2018-09-29T18:05:56.969Z,24.70
2018-09-29T18:08:26.676Z,23.37
2018-09-29T18:10:56.470Z,20.63
2018-09-29T18:13:25.483Z,23.47
2018-09-29T18:15:54.457Z,17.13
2018-09-29T18:18:24.132Z,16.20
2018-09-29T18:20:53.020Z,18.27
2018-09-29T18:23:22.505Z,10.87
2018-09-29T18:25:52.895Z,15.00
2018-09-29T18:28:22.277Z,15.77
2018-09-29T18:30:51.176Z,16.90
2018-09-29T18:33:21.321Z,16.40
2018-09-29T18:35:50.325Z,17.60
2018-09-29T18:38:19.322Z,16.83
2018-09-29T18:40:48.599Z,18.17
2018-09-29T18:43:18.752Z,14.23
2018-09-29T18:45:47.680Z,13.03
2018-09-29T18:48:17.768Z,16.53
2018-09-29T18:50:49.387Z,19.33
2018-09-29T18:53:19.822Z,17.30
2018-09-29T18:55:48.899Z,14.37
2018-09-29T18:58:19.564Z,18.27
2018-09-29T19:00:48.645Z,15.83
2018-09-29T19:03:18.805Z,13.67
2018-09-29T19:05:47.754Z,14.90
2018-09-29T19:08:16.818Z,15.77
2018-09-29T19:10:45.716Z,17.27
2018-09-29T19:13:14.634Z,9.67
2018-09-29T19:15:43.678Z,11.10
2018-09-29T19:18:12.636Z,12.13
2018-09-29T19:20:41.696Z,13.23
2018-09-29T19:23:10.565Z,13.63
2018-09-29T19:25:39.458Z,12.30
2018-09-29T19:28:08.350Z,13.23
2018-09-29T19:30:38.777Z,15.05
2018-09-29T19:33:07.662Z,13.80
2018-09-29T19:35:36.614Z,12.70
2018-09-29T19:38:05.551Z,12.67
2018-09-29T19:40:34.383Z,13.97
2018-09-29T19:43:03.271Z,13.67
2018-09-29T19:45:33.204Z,12.30
2018-09-29T19:48:02.451Z,13.40
2018-09-29T19:50:33.023Z,13.90
2018-09-29T19:53:01.887Z,12.40
2018-09-29T19:55:30.781Z,13.77
2018-09-29T19:58:01.161Z,14.97
2018-09-29T20:00:30.085Z,15.30
2018-09-29T20:02:58.909Z,13.80
2018-09-29T20:05:29.062Z,12.30
2018-09-29T20:07:57.968Z,12.60
2018-09-29T20:10:26.807Z,11.43
2018-09-29T20:12:55.731Z,12.57
2018-09-29T20:15:24.819Z,11.13
2018-09-29T20:17:53.674Z,10.37
2018-09-29T20:20:24.190Z,11.37
2018-09-29T20:22:53.016Z,9.80
2018-09-29T20:25:21.919Z,11.37
2018-09-29T20:27:52.332Z,9.93
2018-09-29T20:30:21.231Z,11.83
2018-09-29T20:32:50.036Z,11.80
2018-09-29T20:35:20.224Z,10.33
2018-09-29T20:37:49.047Z,10.33
2018-09-29T20:40:17.884Z,9.07
2018-09-29T20:42:46.875Z,8.27
2018-09-29T20:45:15.709Z,9.30
2018-09-29T20:47:44.624Z,7.53
2018-09-29T20:50:15.055Z,8.77
2018-09-29T20:52:43.975Z,8.07
2018-09-29T20:55:12.804Z,8.53
2018-09-29T20:57:41.670Z,8.00
2018-09-29T21:00:10.525Z,7.83
2018-09-29T21:02:39.416Z,7.73
2018-09-29T21:05:08.282Z,7.60
2018-09-29T21:07:38.361Z,7.73
2018-09-29T21:10:07.248Z,7.20
2018-09-29T21:12:36.177Z,6.97
2018-09-29T21:15:05.291Z,7.77
2018-09-29T21:17:34.143Z,7.50
2018-09-29T21:20:03.012Z,7.50
2018-09-29T21:22:31.836Z,7.23
2018-09-29T21:25:00.738Z,7.40
2018-09-29T21:27:31.037Z,8.07
2018-09-29T21:29:59.960Z,8.10
2018-09-29T21:32:28.797Z,7.40
2018-09-29T21:34:57.653Z,7.27
2018-09-29T21:37:26.496Z,6.87
2018-09-29T21:39:55.383Z,8.13
2018-09-29T21:42:24.279Z,5.50
2018-09-29T21:44:54.538Z,6.90
2018-09-29T21:47:23.474Z,6.50
2018-09-29T21:49:52.433Z,6.90
2018-09-29T21:52:21.438Z,6.10
2018-09-29T21:54:50.391Z,5.17
2018-09-29T21:57:19.305Z,5.60
2018-09-29T21:59:48.253Z,5.30
2018-09-29T22:02:17.099Z,5.13
2018-09-29T22:04:45.912Z,4.40
2018-09-29T22:07:14.765Z,4.47
2018-09-29T22:09:43.591Z,4.07
2018-09-29T22:12:12.439Z,4.37
2018-09-29T22:14:41.315Z,4.45
2018-09-29T22:17:10.145Z,4.20
2018-09-29T22:19:39.002Z,4.33
2018-09-29T22:22:07.869Z,3.83
2018-09-29T22:24:36.698Z,3.47
2018-09-29T22:27:05.600Z,3.57
2018-09-29T22:29:34.420Z,3.57
2018-09-29T22:32:03.248Z,3.90
2018-09-29T22:34:32.116Z,3.47
2018-09-29T22:37:00.931Z,4.10
2018-09-29T22:39:29.742Z,3.23
2018-09-29T22:41:58.597Z,3.10
2018-09-29T22:44:27.412Z,3.50
2018-09-29T22:46:56.228Z,3.20
2018-09-29T22:49:25.082Z,3.33
2018-09-29T22:51:53.894Z,2.87
2018-09-29T22:54:22.698Z,3.47
2018-09-29T22:56:51.594Z,3.10
2018-09-29T22:59:20.396Z,3.27
2018-09-29T23:01:49.214Z,3.20
2018-09-29T23:04:18.077Z,3.10
2018-09-29T23:06:46.911Z,3.37
2018-09-29T23:09:16.087Z,3.03
2018-09-29T23:11:44.951Z,2.70
2018-09-29T23:14:13.761Z,3.33
2018-09-29T23:16:42.547Z,3.27
2018-09-29T23:19:11.446Z,3.77
2018-09-29T23:21:40.351Z,3.50
2018-09-29T23:24:09.173Z,2.60
2018-09-29T23:26:39.353Z,3.40
2018-09-29T23:29:08.160Z,3.13
2018-09-29T23:31:37.006Z,3.23
2018-09-29T23:34:05.878Z,3.10
2018-09-29T23:36:34.765Z,2.67
2018-09-29T23:39:03.770Z,3.00
2018-09-29T23:41:32.569Z,3.00
2018-09-29T23:44:01.372Z,3.00
2018-09-29T23:46:30.201Z,3.37
2018-09-29T23:48:59.006Z,3.83
2018-09-29T23:51:27.801Z,3.33
2018-09-29T23:53:56.639Z,3.27
2018-09-29T23:56:25.446Z,3.30
2018-09-29T23:58:54.249Z,3.13
